sensor_id;sensor_type;location;lat;lon;timestamp;pressure;altitude;pressure_sealevel;temperature;humidity
27429;BME280;14881;48.092;11.574;2023-05-19T00:01:59;95866.53;;;9.05;100.00
27429;BME280;14881;48.092;11.574;2023-05-19T00:04:26;95866.00;;;9.03;100.00
27429;BME280;14881;48.092;11.574;2023-05-19T00:06:54;95860.03;;;9.01;100.00
27429;BME280;14881;48.092;11.574;2023-05-19T00:09:23;95857.06;;;9.08;100.00
27429;BME280;14881;48.092;11.574;2023-05-19T00:11:50;95856.81;;;8.99;100.00
27429;BME280;14881;48.092;11.574;2023-05-19T00:14:17;95848.94;;;9.03;100.00
27429;BME280;14881;48.092;11.574;2023-05-19T00:16:44;95847.56;;;9.00;100.00
27429;BME280;14881;48.092;11.574;2023-05-19T00:19:10;95852.75;;;8.97;100.00
27429;BME280;14881;48.092;11.574;2023-05-19T00:21:37;95850.00;;;9.02;100.00
27429;BME280;14881;48.092;11.574;2023-05-19T00:24:06;95845.69;;;9.06;100.00
27429;BME280;14881;48.092;11.574;2023-05-19T00:26:32;95850.28;;;9.00;100.00
27429;BME280;14881;48.092;11.574;2023-05-19T00:28:58;95841.34;;;8.95;100.00
27429;BME280;14881;48.092;11.574;2023-05-19T00:31:25;95845.16;;;8.94;100.00
27429;BME280;14881;48.092;11.574;2023-05-19T00:33:51;95847.31;;;8.97;100.00
27429;BME280;14881;48.092;11.574;2023-05-19T00:36:17;95841.88;;;9.02;100.00
27429;BME280;14881;48.092;11.574;2023-05-19T00:38:44;95838.91;;;8.93;100.00
27429;BME280;14881;48.092;11.574;2023-05-19T00:41:16;95833.78;;;8.97;100.00
27429;BME280;14881;48.092;11.574;2023-05-19T00:43:45;95829.16;;;8.97;100.00
27429;BME280;14881;48.092;11.574;2023-05-19T00:46:12;95834.84;;;8.91;100.00
27429;BME280;14881;48.092;11.574;2023-05-19T00:48:38;95830.25;;;8.91;100.00
27429;BME280;14881;48.092;11.574;2023-05-19T00:51:05;95831.84;;;8.87;100.00
27429;BME280;14881;48.092;11.574;2023-05-19T00:53:34;95828.88;;;8.94;100.00
27429;BME280;14881;48.092;11.574;2023-05-19T00:56:02;95831.31;;;8.95;100.00
27429;BME280;14881;48.092;11.574;2023-05-19T00:58:30;95821.03;;;8.87;100.00
27429;BME280;14881;48.092;11.574;2023-05-19T01:00:58;95831.31;;;8.95;100.00
27429;BME280;14881;48.092;11.574;2023-05-19T01:03:29;95829.69;;;8.94;100.00
27429;BME280;14881;48.092;11.574;2023-05-19T01:05:58;95827.53;;;8.91;100.00
27429;BME280;14881;48.092;11.574;2023-05-19T01:08:26;95824.81;;;8.96;100.00
27429;BME280;14881;48.092;11.574;2023-05-19T01:10:53;95824.00;;;8.96;100.00
27429;BME280;14881;48.092;11.574;2023-05-19T01:13:20;95819.41;;;8.91;100.00
27429;BME280;14881;48.092;11.574;2023-05-19T01:15:58;95834.31;;;8.94;100.00
27429;BME280;14881;48.092;11.574;2023-05-19T01:18:34;95826.72;;;8.91;100.00
27429;BME280;14881;48.092;11.574;2023-05-19T01:21:17;95821.28;;;8.91;100.00
27429;BME280;14881;48.092;11.574;2023-05-19T01:23:53;95819.16;;;8.83;100.00
27429;BME280;14881;48.092;11.574;2023-05-19T01:26:48;95828.63;;;8.95;100.00
27429;BME280;14881;48.092;11.574;2023-05-19T01:29:29;95822.38;;;8.85;100.00
27429;BME280;14881;48.092;11.574;2023-05-19T01:32:03;95825.34;;;8.88;100.00
27429;BME280;14881;48.092;11.574;2023-05-19T01:34:33;95827.78;;;8.85;100.00
27429;BME280;14881;48.092;11.574;2023-05-19T01:37:04;95828.06;;;8.83;100.00
27429;BME280;14881;48.092;11.574;2023-05-19T01:39:31;95825.88;;;8.85;100.00
27429;BME280;14881;48.092;11.574;2023-05-19T01:41:58;95824.00;;;8.86;100.00
27429;BME280;14881;48.092;11.574;2023-05-19T01:44:26;95835.66;;;8.81;100.00
27429;BME280;14881;48.092;11.574;2023-05-19T01:46:54;95834.03;;;8.80;100.00
27429;BME280;14881;48.092;11.574;2023-05-19T01:49:21;95827.28;;;8.83;100.00
27429;BME280;14881;48.092;11.574;2023-05-19T01:51:48;95827.25;;;8.78;100.00
27429;BME280;14881;48.092;11.574;2023-05-19T01:54:14;95825.91;;;8.75;100.00
27429;BME280;14881;48.092;11.574;2023-05-19T01:56:53;95828.88;;;8.73;100.00
27429;BME280;14881;48.092;11.574;2023-05-19T01:59:30;95827.25;;;8.72;100.00
27429;BME280;14881;48.092;11.574;2023-05-19T02:02:01;95827.53;;;8.76;100.00
27429;BME280;14881;48.092;11.574;2023-05-19T02:04:38;95831.03;;;8.71;100.00
27429;BME280;14881;48.092;11.574;2023-05-19T02:07:12;95830.50;;;8.69;100.00
27429;BME280;14881;48.092;11.574;2023-05-19T02:09:56;95825.34;;;8.68;100.00
27429;BME280;14881;48.092;11.574;2023-05-19T02:12:34;95827.25;;;8.78;100.00
27429;BME280;14881;48.092;11.574;2023-05-19T02:15:05;95818.84;;;8.74;100.00
27429;BME280;14881;48.092;11.574;2023-05-19T02:17:35;95822.09;;;8.71;100.00
27429;BME280;14881;48.092;11.574;2023-05-19T02:20:06;95815.31;;;8.68;100.00
27429;BME280;14881;48.092;11.574;2023-05-19T02:22:34;95819.41;;;8.76;100.00
27429;BME280;14881;48.092;11.574;2023-05-19T02:25:01;95816.69;;;8.76;100.00
27429;BME280;14881;48.092;11.574;2023-05-19T02:27:27;95815.59;;;8.77;100.00
27429;BME280;14881;48.092;11.574;2023-05-19T02:29:54;95815.31;;;8.68;100.00
27429;BME280;14881;48.092;11.574;2023-05-19T02:32:21;95822.09;;;8.71;100.00
27429;BME280;14881;48.092;11.574;2023-05-19T02:34:47;95821.03;;;8.77;100.00
27429;BME280;14881;48.092;11.574;2023-05-19T02:37:15;95816.41;;;8.67;100.00
27429;BME280;14881;48.092;11.574;2023-05-19T02:39:41;95816.41;;;8.67;100.00
27429;BME280;14881;48.092;11.574;2023-05-19T02:42:08;95822.91;;;8.66;100.00
27429;BME280;14881;48.092;11.574;2023-05-19T02:44:35;95811.00;;;8.62;100.00
27429;BME280;14881;48.092;11.574;2023-05-19T02:47:01;95811.00;;;8.62;100.00
27429;BME280;14881;48.092;11.574;2023-05-19T02:49:27;95800.16;;;8.67;100.00
27429;BME280;14881;48.092;11.574;2023-05-19T02:51:55;95813.41;;;8.69;100.00
27429;BME280;14881;48.092;11.574;2023-05-19T02:54:22;95812.88;;;8.67;100.00
27429;BME280;14881;48.092;11.574;2023-05-19T02:56:49;95815.88;;;8.70;100.00
27429;BME280;14881;48.092;11.574;2023-05-19T02:59:15;95802.59;;;8.64;100.00
27429;BME280;14881;48.092;11.574;2023-05-19T03:01:47;95805.56;;;8.67;100.00
27429;BME280;14881;48.092;11.574;2023-05-19T03:04:14;95806.13;;;8.75;100.00
27429;BME280;14881;48.092;11.574;2023-05-19T03:06:40;95805.28;;;8.69;100.00
27429;BME280;14881;48.092;11.574;2023-05-19T03:09:07;95807.47;;;8.67;100.00
27429;BME280;14881;48.092;11.574;2023-05-19T03:11:34;95803.66;;;8.68;100.00
27429;BME280;14881;48.092;11.574;2023-05-19T03:14:00;95802.88;;;8.62;100.00
27429;BME280;14881;48.092;11.574;2023-05-19T03:16:27;95809.91;;;8.63;100.00
27429;BME280;14881;48.092;11.574;2023-05-19T03:18:55;95809.91;;;8.68;100.00
27429;BME280;14881;48.092;11.574;2023-05-19T03:21:24;95809.38;;;8.61;100.00
27429;BME280;14881;48.092;11.574;2023-05-19T03:23:53;95808.28;;;8.57;100.00
27429;BME280;14881;48.092;11.574;2023-05-19T03:26:19;95806.63;;;8.51;100.00
27429;BME280;14881;48.092;11.574;2023-05-19T03:28:48;95808.25;;;8.52;100.00
27429;BME280;14881;48.092;11.574;2023-05-19T03:31:14;95805.56;;;8.52;100.00
27429;BME280;14881;48.092;11.574;2023-05-19T03:33:41;95809.09;;;8.58;100.00
27429;BME280;14881;48.092;11.574;2023-05-19T03:36:07;95807.72;;;8.55;100.00
27429;BME280;14881;48.092;11.574;2023-05-19T03:38:34;95800.66;;;8.49;100.00
27429;BME280;14881;48.092;11.574;2023-05-19T03:41:01;95800.94;;;8.53;100.00
27429;BME280;14881;48.092;11.574;2023-05-19T03:43:27;95795.28;;;8.54;100.00
27429;BME280;14881;48.092;11.574;2023-05-19T03:45:54;95794.75;;;8.62;100.00
27429;BME280;14881;48.092;11.574;2023-05-19T03:48:21;95795.28;;;8.59;100.00
27429;BME280;14881;48.092;11.574;2023-05-19T03:50:47;95797.72;;;8.61;100.00
27429;BME280;14881;48.092;11.574;2023-05-19T03:53:14;95796.38;;;8.63;100.00
27429;BME280;14881;48.092;11.574;2023-05-19T03:55:40;95796.66;;;8.62;100.00
27429;BME280;14881;48.092;11.574;2023-05-19T03:58:07;95803.41;;;8.69;100.00
27429;BME280;14881;48.092;11.574;2023-05-19T04:00:33;95798.81;;;8.65;100.00
27429;BME280;14881;48.092;11.574;2023-05-19T04:03:01;95798.53;;;8.71;100.00
27429;BME280;14881;48.092;11.574;2023-05-19T04:05:27;95793.38;;;8.75;100.00
27429;BME280;14881;48.092;11.574;2023-05-19T04:07:54;95796.38;;;8.79;100.00
27429;BME280;14881;48.092;11.574;2023-05-19T04:10:20;95789.34;;;8.83;100.00
27429;BME280;14881;48.092;11.574;2023-05-19T04:12:47;95792.28;;;8.86;100.00
27429;BME280;14881;48.092;11.574;2023-05-19T04:15:13;95792.28;;;8.86;100.00
27429;BME280;14881;48.092;11.574;2023-05-19T04:17:40;95789.31;;;8.88;100.00
27429;BME280;14881;48.092;11.574;2023-05-19T04:20:08;95780.66;;;8.96;100.00
27429;BME280;14881;48.092;11.574;2023-05-19T04:22:34;95789.88;;;9.00;100.00
27429;BME280;14881;48.092;11.574;2023-05-19T04:25:01;95795.28;;;9.05;100.00
27429;BME280;14881;48.092;11.574;2023-05-19T04:27:29;95791.75;;;9.10;100.00
27429;BME280;14881;48.092;11.574;2023-05-19T04:29:56;95789.84;;;9.10;100.00
27429;BME280;14881;48.092;11.574;2023-05-19T04:32:23;95792.03;;;9.08;100.00
27429;BME280;14881;48.092;11.574;2023-05-19T04:34:49;95791.47;;;9.11;100.00
27429;BME280;14881;48.092;11.574;2023-05-19T04:37:16;95796.31;;;9.19;100.00
27429;BME280;14881;48.092;11.574;2023-05-19T04:39:43;95790.09;;;9.24;100.00
27429;BME280;14881;48.092;11.574;2023-05-19T04:42:10;95794.69;;;9.23;100.00
27429;BME280;14881;48.092;11.574;2023-05-19T04:44:36;95792.81;;;9.29;100.00
27429;BME280;14881;48.092;11.574;2023-05-19T04:47:05;95794.66;;;9.43;100.00
27429;BME280;14881;48.092;11.574;2023-05-19T04:49:33;95799.28;;;9.48;100.00
27429;BME280;14881;48.092;11.574;2023-05-19T04:52:05;95791.91;;;9.59;100.00
27429;BME280;14881;48.092;11.574;2023-05-19T04:54:33;95788.38;;;9.58;100.00
27429;BME280;14881;48.092;11.574;2023-05-19T04:56:59;95785.94;;;9.57;100.00
27429;BME280;14881;48.092;11.574;2023-05-19T04:59:26;95786.75;;;9.62;100.00
27429;BME280;14881;48.092;11.574;2023-05-19T05:01:52;95770.41;;;9.77;100.00
27429;BME280;14881;48.092;11.574;2023-05-19T05:04:18;95769.28;;;9.89;100.00
27429;BME280;14881;48.092;11.574;2023-05-19T05:06:46;95764.06;;;10.02;100.00
27429;BME280;14881;48.092;11.574;2023-05-19T05:09:13;95767.00;;;10.11;100.00
27429;BME280;14881;48.092;11.574;2023-05-19T05:11:41;95764.00;;;10.12;100.00
27429;BME280;14881;48.092;11.574;2023-05-19T05:14:08;95766.69;;;10.23;100.00
27429;BME280;14881;48.092;11.574;2023-05-19T05:16:35;95771.06;;;10.19;100.00
27429;BME280;14881;48.092;11.574;2023-05-19T05:19:02;95764.47;;;10.30;100.00
27429;BME280;14881;48.092;11.574;2023-05-19T05:21:29;95757.59;;;10.42;100.00
27429;BME280;14881;48.092;11.574;2023-05-19T05:23:57;95754.31;;;10.45;100.00
27429;BME280;14881;48.092;11.574;2023-05-19T05:26:29;95757.44;;;10.63;100.00
27429;BME280;14881;48.092;11.574;2023-05-19T05:28:56;95750.56;;;10.75;100.00
27429;BME280;14881;48.092;11.574;2023-05-19T05:31:22;95751.44;;;10.71;100.00
27429;BME280;14881;48.092;11.574;2023-05-19T05:33:49;95750.81;;;10.74;100.00
27429;BME280;14881;48.092;11.574;2023-05-19T05:36:15;95751.53;;;10.90;100.00
27429;BME280;14881;48.092;11.574;2023-05-19T05:38:41;95749.38;;;10.87;100.00
27429;BME280;14881;48.092;11.574;2023-05-19T05:41:08;95760.69;;;10.99;100.00
27429;BME280;14881;48.092;11.574;2023-05-19T05:43:34;95763.13;;;11.00;100.00
27429;BME280;14881;48.092;11.574;2023-05-19T05:46:01;95766.25;;;11.12;100.00
27429;BME280;14881;48.092;11.574;2023-05-19T05:48:28;95761.16;;;11.35;100.00
27429;BME280;14881;48.092;11.574;2023-05-19T05:50:55;95757.78;;;11.43;100.00
27429;BME280;14881;48.092;11.574;2023-05-19T05:53:24;95758.75;;;11.57;100.00
27429;BME280;14881;48.092;11.574;2023-05-19T05:55:51;95756.13;;;11.47;100.00
27429;BME280;14881;48.092;11.574;2023-05-19T05:58:18;95751.59;;;11.61;100.00
27429;BME280;14881;48.092;11.574;2023-05-19T06:00:45;95749.22;;;11.31;100.00
27429;BME280;14881;48.092;11.574;2023-05-19T06:03:14;95747.50;;;11.40;100.00
27429;BME280;14881;48.092;11.574;2023-05-19T06:05:41;95748.09;;;11.37;100.00
27429;BME280;14881;48.092;11.574;2023-05-19T06:08:08;95743.16;;;11.39;100.00
27429;BME280;14881;48.092;11.574;2023-05-19T06:10:34;95753.53;;;11.37;100.00
27429;BME280;14881;48.092;11.574;2023-05-19T06:13:03;95757.28;;;11.41;100.00
27429;BME280;14881;48.092;11.574;2023-05-19T06:15:29;95765.25;;;11.32;100.00
27429;BME280;14881;48.092;11.574;2023-05-19T06:17:56;95758.19;;;11.31;100.00
27429;BME280;14881;48.092;11.574;2023-05-19T06:20:23;95752.88;;;11.45;100.00
27429;BME280;14881;48.092;11.574;2023-05-19T06:22:50;95748.72;;;11.52;100.00
27429;BME280;14881;48.092;11.574;2023-05-19T06:25:16;95746.16;;;11.61;100.00
27429;BME280;14881;48.092;11.574;2023-05-19T06:27:42;95751.78;;;11.70;100.00
27429;BME280;14881;48.092;11.574;2023-05-19T06:30:09;95749.25;;;11.55;100.00
27429;BME280;14881;48.092;11.574;2023-05-19T06:32:36;95742.81;;;11.69;100.00
27429;BME280;14881;48.092;11.574;2023-05-19T06:35:03;95747.66;;;11.77;100.00
27429;BME280;14881;48.092;11.574;2023-05-19T06:37:30;95750.06;;;11.79;100.00
27429;BME280;14881;48.092;11.574;2023-05-19T06:39:56;95747.56;;;11.82;100.00
27429;BME280;14881;48.092;11.574;2023-05-19T06:42:23;95742.88;;;11.88;100.00
27429;BME280;14881;48.092;11.574;2023-05-19T06:44:50;95746.94;;;11.91;100.00
27429;BME280;14881;48.092;11.574;2023-05-19T06:47:17;95750.25;;;11.88;100.00
27429;BME280;14881;48.092;11.574;2023-05-19T06:49:44;95744.63;;;11.79;100.00
27429;BME280;14881;48.092;11.574;2023-05-19T06:52:11;95741.56;;;11.85;100.00
27429;BME280;14881;48.092;11.574;2023-05-19T06:54:38;95754.63;;;12.07;100.00
27429;BME280;14881;48.092;11.574;2023-05-19T06:57:04;95753.31;;;12.24;100.00
27429;BME280;14881;48.092;11.574;2023-05-19T06:59:31;95749.19;;;12.45;100.00
27429;BME280;14881;48.092;11.574;2023-05-19T07:01:57;95750.81;;;12.46;100.00
27429;BME280;14881;48.092;11.574;2023-05-19T07:04:24;95751.84;;;12.82;100.00
27429;BME280;14881;48.092;11.574;2023-05-19T07:06:50;95753.09;;;12.39;100.00
27429;BME280;14881;48.092;11.574;2023-05-19T07:09:17;95757.28;;;12.31;100.00
27429;BME280;14881;48.092;11.574;2023-05-19T07:11:44;95746.47;;;12.64;100.00
27429;BME280;14881;48.092;11.574;2023-05-19T07:14:11;95745.66;;;12.96;100.00
27429;BME280;14881;48.092;11.574;2023-05-19T07:16:37;95745.25;;;13.21;100.00
27429;BME280;14881;48.092;11.574;2023-05-19T07:19:03;95739.00;;;13.34;100.00
27429;BME280;14881;48.092;11.574;2023-05-19T07:21:30;95744.50;;;13.62;100.00
27429;BME280;14881;48.092;11.574;2023-05-19T07:23:56;95749.34;;;13.65;100.00
27429;BME280;14881;48.092;11.574;2023-05-19T07:26:23;95738.94;;;13.80;100.00
27429;BME280;14881;48.092;11.574;2023-05-19T07:28:50;95737.91;;;13.76;100.00
27429;BME280;14881;48.092;11.574;2023-05-19T07:31:16;95745.69;;;13.55;100.00
27429;BME280;14881;48.092;11.574;2023-05-19T07:33:43;95744.94;;;13.22;100.00
27429;BME280;14881;48.092;11.574;2023-05-19T07:36:09;95739.75;;;13.67;100.00
27429;BME280;14881;48.092;11.574;2023-05-19T07:38:36;95741.53;;;13.44;100.00
27429;BME280;14881;48.092;11.574;2023-05-19T07:41:03;95737.28;;;13.38;100.00
27429;BME280;14881;48.092;11.574;2023-05-19T07:43:29;95732.88;;;13.83;100.00
27429;BME280;14881;48.092;11.574;2023-05-19T07:45:56;95718.63;;;14.36;100.00
27429;BME280;14881;48.092;11.574;2023-05-19T07:48:23;95726.44;;;14.65;100.00
27429;BME280;14881;48.092;11.574;2023-05-19T07:50:50;95726.38;;;14.79;100.00
27429;BME280;14881;48.092;11.574;2023-05-19T07:53:17;95727.56;;;14.64;100.00
27429;BME280;14881;48.092;11.574;2023-05-19T07:55:45;95732.81;;;14.11;100.00
27429;BME280;14881;48.092;11.574;2023-05-19T07:58:12;95729.41;;;13.91;100.00
27429;BME280;14881;48.092;11.574;2023-05-19T08:00:38;95738.88;;;14.35;100.00
27429;BME280;14881;48.092;11.574;2023-05-19T08:03:06;95727.16;;;14.57;100.00
27429;BME280;14881;48.092;11.574;2023-05-19T08:05:33;95736.94;;;14.36;100.00
27429;BME280;14881;48.092;11.574;2023-05-19T08:08:00;95740.38;;;14.27;100.00
27429;BME280;14881;48.092;11.574;2023-05-19T08:10:26;95726.28;;;14.48;100.00
27429;BME280;14881;48.092;11.574;2023-05-19T08:12:53;95736.28;;;14.39;100.00
27429;BME280;14881;48.092;11.574;2023-05-19T08:15:19;95730.84;;;14.52;100.00
27429;BME280;14881;48.092;11.574;2023-05-19T08:17:46;95735.75;;;14.14;100.00
27429;BME280;14881;48.092;11.574;2023-05-19T08:20:13;95733.88;;;13.60;100.00
27429;BME280;14881;48.092;11.574;2023-05-19T08:22:39;95733.50;;;13.20;100.00
27429;BME280;14881;48.092;11.574;2023-05-19T08:25:07;95732.41;;;13.21;100.00
27429;BME280;14881;48.092;11.574;2023-05-19T08:27:34;95726.28;;;13.30;100.00
27429;BME280;14881;48.092;11.574;2023-05-19T08:30:00;95726.78;;;13.32;100.00
27429;BME280;14881;48.092;11.574;2023-05-19T08:32:27;95733.84;;;13.33;100.00
27429;BME280;14881;48.092;11.574;2023-05-19T08:34:53;95739.78;;;13.21;100.00
27429;BME280;14881;48.092;11.574;2023-05-19T08:37:20;95732.06;;;13.09;100.00
27429;BME280;14881;48.092;11.574;2023-05-19T08:39:46;95734.16;;;12.99;100.00
27429;BME280;14881;48.092;11.574;2023-05-19T08:42:13;95732.13;;;12.72;100.00
27429;BME280;14881;48.092;11.574;2023-05-19T08:44:40;95733.84;;;12.68;100.00
27429;BME280;14881;48.092;11.574;2023-05-19T08:47:07;95736.50;;;12.54;100.00
27429;BME280;14881;48.092;11.574;2023-05-19T08:49:43;95730.31;;;12.48;100.00
27429;BME280;14881;48.092;11.574;2023-05-19T08:52:16;95741.00;;;12.64;100.00
27429;BME280;14881;48.092;11.574;2023-05-19T08:54:49;95744.06;;;12.76;100.00
27429;BME280;14881;48.092;11.574;2023-05-19T08:57:20;95739.69;;;12.94;100.00
27429;BME280;14881;48.092;11.574;2023-05-19T08:59:49;95737.34;;;12.87;100.00
27429;BME280;14881;48.092;11.574;2023-05-19T09:02:17;95732.41;;;12.89;100.00
27429;BME280;14881;48.092;11.574;2023-05-19T09:04:45;95730.78;;;12.88;100.00
27429;BME280;14881;48.092;11.574;2023-05-19T09:07:13;95726.25;;;13.16;100.00
27429;BME280;14881;48.092;11.574;2023-05-19T09:09:39;95729.97;;;13.20;100.00
27429;BME280;14881;48.092;11.574;2023-05-19T09:12:09;95728.66;;;13.17;100.00
27429;BME280;14881;48.092;11.574;2023-05-19T09:14:36;95728.41;;;13.46;100.00
27429;BME280;14881;48.092;11.574;2023-05-19T09:17:03;95720.72;;;13.48;100.00
27429;BME280;14881;48.092;11.574;2023-05-19T09:19:30;95721.25;;;13.64;100.00
27429;BME280;14881;48.092;11.574;2023-05-19T09:21:57;95721.50;;;13.90;100.00
27429;BME280;14881;48.092;11.574;2023-05-19T09:24:24;95729.81;;;13.99;100.00
27429;BME280;14881;48.092;11.574;2023-05-19T09:26:54;95713.31;;;13.90;100.00
27429;BME280;14881;48.092;11.574;2023-05-19T09:29:25;95722.53;;;13.80;100.00
27429;BME280;14881;48.092;11.574;2023-05-19T09:31:52;95719.38;;;13.87;100.00
27429;BME280;14881;48.092;11.574;2023-05-19T09:34:20;95724.97;;;13.82;100.00
27429;BME280;14881;48.092;11.574;2023-05-19T09:36:47;95717.94;;;14.03;100.00
27429;BME280;14881;48.092;11.574;2023-05-19T09:39:14;95714.19;;;14.13;100.00
27429;BME280;14881;48.092;11.574;2023-05-19T09:41:41;95705.75;;;14.23;100.00
27429;BME280;14881;48.092;11.574;2023-05-19T09:44:12;95708.75;;;14.13;100.00
27429;BME280;14881;48.092;11.574;2023-05-19T09:46:46;95705.94;;;14.40;100.00
27429;BME280;14881;48.092;11.574;2023-05-19T09:49:12;95712.34;;;14.72;100.00
27429;BME280;14881;48.092;11.574;2023-05-19T09:51:40;95707.31;;;14.87;100.00
27429;BME280;14881;48.092;11.574;2023-05-19T09:54:06;95706.81;;;14.85;100.00
27429;BME280;14881;48.092;11.574;2023-05-19T09:56:35;95707.22;;;14.79;100.00
27429;BME280;14881;48.092;11.574;2023-05-19T09:59:04;95705.44;;;14.52;100.00
27429;BME280;14881;48.092;11.574;2023-05-19T10:01:30;95713.59;;;14.88;100.00
27429;BME280;14881;48.092;11.574;2023-05-19T10:03:59;95706.34;;;14.92;100.00
27429;BME280;14881;48.092;11.574;2023-05-19T10:06:30;95704.38;;;15.06;100.00
27429;BME280;14881;48.092;11.574;2023-05-19T10:08:57;95701.06;;;14.73;100.00
27429;BME280;14881;48.092;11.574;2023-05-19T10:11:25;95700.69;;;14.30;100.00
27429;BME280;14881;48.092;11.574;2023-05-19T10:13:52;95704.31;;;13.89;100.00
27429;BME280;14881;48.092;11.574;2023-05-19T10:16:20;95707.16;;;13.57;100.00
27429;BME280;14881;48.092;11.574;2023-05-19T10:18:48;95720.22;;;13.33;100.00
27429;BME280;14881;48.092;11.574;2023-05-19T10:21:17;95716.47;;;13.56;100.00
27429;BME280;14881;48.092;11.574;2023-05-19T10:23:43;95707.34;;;13.88;100.00
27429;BME280;14881;48.092;11.574;2023-05-19T10:26:11;95707.97;;;13.85;100.00
27429;BME280;14881;48.092;11.574;2023-05-19T10:28:40;95703.47;;;14.16;100.00
27429;BME280;14881;48.092;11.574;2023-05-19T10:31:10;95707.53;;;14.19;100.00
27429;BME280;14881;48.092;11.574;2023-05-19T10:33:51;95702.69;;;14.52;100.00
27429;BME280;14881;48.092;11.574;2023-05-19T10:36:36;95704.03;;;14.41;100.00
27429;BME280;14881;48.092;11.574;2023-05-19T10:39:06;95699.25;;;14.46;100.00
27429;BME280;14881;48.092;11.574;2023-05-19T10:41:43;95707.34;;;14.02;100.00
27429;BME280;14881;48.092;11.574;2023-05-19T10:44:21;95702.19;;;13.86;100.00
27429;BME280;14881;48.092;11.574;2023-05-19T10:46:53;95689.94;;;13.98;100.00
27429;BME280;14881;48.092;11.574;2023-05-19T10:49:22;95700.38;;;13.96;100.00
27429;BME280;14881;48.092;11.574;2023-05-19T10:51:51;95697.47;;;14.28;100.00
27429;BME280;14881;48.092;11.574;2023-05-19T10:54:37;95688.22;;;14.38;100.00
27429;BME280;14881;48.092;11.574;2023-05-19T10:57:05;95690.25;;;14.46;100.00
27429;BME280;14881;48.092;11.574;2023-05-19T10:59:34;95688.31;;;14.46;100.00
27429;BME280;14881;48.092;11.574;2023-05-19T11:02:03;95694.41;;;14.43;100.00
27429;BME280;14881;48.092;11.574;2023-05-19T11:04:44;95688.97;;;14.29;100.00
27429;BME280;14881;48.092;11.574;2023-05-19T11:07:18;95704.78;;;14.05;100.00
27429;BME280;14881;48.092;11.574;2023-05-19T11:09:48;95701.88;;;13.88;100.00
27429;BME280;14881;48.092;11.574;2023-05-19T11:12:19;95692.81;;;13.65;100.00
27429;BME280;14881;48.092;11.574;2023-05-19T11:14:45;95692.91;;;13.60;100.00
27429;BME280;14881;48.092;11.574;2023-05-19T11:17:14;95694.31;;;13.99;100.00
27429;BME280;14881;48.092;11.574;2023-05-19T11:19:51;95699.28;;;13.83;100.00
27429;BME280;14881;48.092;11.574;2023-05-19T11:22:22;95694.41;;;13.93;100.00
27429;BME280;14881;48.092;11.574;2023-05-19T11:24:48;95682.22;;;14.13;100.00
27429;BME280;14881;48.092;11.574;2023-05-19T11:27:20;95671.81;;;14.38;100.00
27429;BME280;14881;48.092;11.574;2023-05-19T11:29:48;95677.69;;;14.89;100.00
27429;BME280;14881;48.092;11.574;2023-05-19T11:32:15;95679.25;;;14.82;100.00
27429;BME280;14881;48.092;11.574;2023-05-19T11:34:43;95672.59;;;14.74;100.00
27429;BME280;14881;48.092;11.574;2023-05-19T11:37:10;95681.75;;;14.70;100.00
27429;BME280;14881;48.092;11.574;2023-05-19T11:39:38;95684.13;;;15.16;100.00
27429;BME280;14881;48.092;11.574;2023-05-19T11:42:04;95682.31;;;15.11;100.00
27429;BME280;14881;48.092;11.574;2023-05-19T11:44:31;95685.56;;;15.13;100.00
27429;BME280;14881;48.092;11.574;2023-05-19T11:46:58;95687.03;;;14.88;100.00
27429;BME280;14881;48.092;11.574;2023-05-19T11:49:26;95685.84;;;14.81;100.00
27429;BME280;14881;48.092;11.574;2023-05-19T11:51:53;95680.00;;;14.15;100.00
27429;BME280;14881;48.092;11.574;2023-05-19T11:54:19;95687.25;;;14.20;100.00
27429;BME280;14881;48.092;11.574;2023-05-19T11:56:48;95685.91;;;14.31;100.00
27429;BME280;14881;48.092;11.574;2023-05-19T11:59:28;95696.75;;;14.36;100.00
27429;BME280;14881;48.092;11.574;2023-05-19T12:02:14;95690.31;;;14.18;100.00
27429;BME280;14881;48.092;11.574;2023-05-19T12:04:41;95700.28;;;13.73;100.00
27429;BME280;14881;48.092;11.574;2023-05-19T12:07:09;95697.16;;;13.66;100.00
27429;BME280;14881;48.092;11.574;2023-05-19T12:09:36;95702.81;;;13.70;100.00
27429;BME280;14881;48.092;11.574;2023-05-19T12:12:04;95699.59;;;13.81;100.00
27429;BME280;14881;48.092;11.574;2023-05-19T12:14:31;95703.22;;;13.63;100.00
27429;BME280;14881;48.092;11.574;2023-05-19T12:16:57;95697.97;;;13.80;100.00
27429;BME280;14881;48.092;11.574;2023-05-19T12:19:24;95694.41;;;13.93;100.00
27429;BME280;14881;48.092;11.574;2023-05-19T12:21:51;95685.97;;;14.17;100.00
27429;BME280;14881;48.092;11.574;2023-05-19T12:24:19;95698.72;;;14.08;100.00
27429;BME280;14881;48.092;11.574;2023-05-19T12:26:45;95700.56;;;13.99;100.00
27429;BME280;14881;48.092;11.574;2023-05-19T12:29:12;95692.88;;;13.87;100.00
27429;BME280;14881;48.092;11.574;2023-05-19T12:31:39;95685.31;;;14.34;100.00
27429;BME280;14881;48.092;11.574;2023-05-19T12:34:05;95685.31;;;14.34;100.00
27429;BME280;14881;48.092;11.574;2023-05-19T12:36:32;95677.38;;;14.46;100.00
27429;BME280;14881;48.092;11.574;2023-05-19T12:38:58;95692.81;;;14.28;100.00
27429;BME280;14881;48.092;11.574;2023-05-19T12:41:25;95688.53;;;14.50;100.00
27429;BME280;14881;48.092;11.574;2023-05-19T12:43:53;95689.25;;;14.42;100.00
27429;BME280;14881;48.092;11.574;2023-05-19T12:46:20;95687.25;;;14.20;100.00
27429;BME280;14881;48.092;11.574;2023-05-19T12:48:47;95680.44;;;14.31;100.00